AirNav   Pilot Hours Calculator
 
 1642 users online  

NH08 Marbina Woods Heliport
North Stratford, New Hampshire, USA

GOING TO NORTH STRATFORD?


FAA INFORMATION EFFECTIVE 02 JANUARY 2020

Location

FAA Identifier: NH08
Lat/Long: 44-41-35.8500N 071-34-30.0300W
44-41.597500N 071-34.500500W
44.6932917,-71.5750083
(estimated)
Elevation: 1429 ft. / 436 m (estimated)
From city: 4 miles SSE of NORTH STRATFORD, NH
Time zone: UTC -5 (UTC -4 during Daylight Saving Time)
Zip code: 05905

Heliport Operations

Heliport use: Private use. Permission required prior to landing
Activation date: 09/2016
Control tower: no
ARTCC: BOSTON CENTER
FSS: BANGOR FLIGHT SERVICE STATION
Attendance: 
Wind indicator: yes
Segmented circle: no

Heliport Communications

WX ASOS at BML (18 nm SE): 135.175 (603-449-3328)
WX ASOS at HIE (20 nm S): 118.525 (603-837-2769)

Nearby radio navigation aids

VOR radial/distance  VOR name  Freq  Var
BMLr299/17.0BERLIN VOR/DME110.4017W
YSCr183/38.5SHERBROOKE VOR/DME113.2017W

 
NDB name  Hdg/Dist  Freq  Var  ID
MAHN030/20.438617WGMA --. -- .-
RANGELEY266/37.922118WRQM .-. --.- --

Heliport Services

Runway Information

Helipad H1

Dimensions: 60 x 60 ft. / 18 x 18 m
Surface: concrete
Latitude: 44-41.597500N
Longitude: 071-34.500500W
Elevation: 1429.0 ft.
Traffic pattern: leftleft

Heliport Ownership and Management from official FAA records

Ownership: Privately-owned
Owner: MARTINE ROTHBLATT
33 CAVE ROAD
NORTH STRATFORD, NH 03590
Phone 321-777-2061
Manager: ROBIN RHEAUME
33 CAVE ROAD
NORTH STRATFORD, NH 03590
Phone 603-331-1847

Additional Remarks

FOR CD CTC BOSTON ARTCC AT 603-879-6859.

Instrument Procedures

There are no published instrument procedures at NH08.

Some nearby airports with instrument procedures:

KBML - Berlin Regional Airport (18 nm E)
KHIE - Mount Washington Regional Airport (20 nm S)
KCDA - Caledonia County Airport (20 nm W)
KEFK - Northeast Kingdom International Airport (30 nm NW)
0B1 - Bethel Regional Airport (36 nm SE)
 
Loc | Ops | Rwys | IFR | FBO | Links
Com | Nav | Svcs | Stats | Notes
Aerial photo
No photo
 
Airport distance calculator
Flying to Marbina Woods Heliport? Find the distance to fly.

From to NH08

Sunrise and sunset
Times for 22-Jan-2020
 Local
(UTC-5)
 Zulu
(UTC)
Morning civil twilight06:4411:44
Sunrise07:1612:16
Sunset16:4021:40
Evening civil twilight17:1222:12

Current date and time
Zulu (UTC)  22-Jan-2020 20:06:47
Local (UTC-5)  22-Jan-2020 15:06:47
 
METAR
KBML 
18nm E 
221952Z AUTO 36005KT 10SM CLR 01/M08 A3027 RMK AO2 SLP269 T00061078
KHIE 
20nm S 
221952Z AUTO 00000KT 10SM CLR 00/M08 A3029 RMK AO2 SLP277 T00001083
KCDA 
20nm W 
221955Z AUTO 14008KT 10SM CLR M02/M08 A3029 RMK AO2 T10171084
K1V4 
25nm SW 
221954Z AUTO M01/M08 A3029 RMK AO1 SLP276 T10061078
KMWN 
28nm SE 
221956Z 30038G47KT 90SM FEW160 FEW180 SCT200 M10/M16 RMK
KEFK 
30nm NW 
221956Z AUTO 19007KT 10SM CLR 00/M07 A3027 RMK AO2 T10011070
TAF
KHIE 
20nm S 
221720Z 2218/2318 VRB03KT P6SM SCT250
NOTAMs
Click for the latest NOTAMs
NOTAMs are issued by the DoD/FAA and will open in a separate window not controlled by AirNav.

 

 
 

Would you like to see your business listed on this page?

 If your business provides an interesting product or service to pilots, flight crews, aircraft, or users of the Marbina Woods Heliport, you should consider listing it here.  To start the listing process, click on the button below
 
Add a business
 

Other Pages about Marbina Woods Heliport

Update a link
 
Copyright © AirNav, LLC. All rights reserved. Privacy Policy  Contact